Time;durP1;ratioP1;P1;durP2;ratioP2;P2;SDS_P1;SDS_P2;PMS_P1;PMS_P2;Temp;Humidity;BMP_temperature;BMP_pressure;BME280_temperature;BME280_humidity;BME280_pressure;Samples;Min_cycle;Max_cycle;Signal;HPM_P1;HPM_P2
2021/03/14 00:03:02;;;;;;;0.70;0.60;;;4.40;99.90;;;4.90;100.00;91938.78;5044265;28;20240;-72
2021/03/14 00:06:06;;;;;;;0.70;0.60;;;4.30;99.90;;;4.82;100.00;91270.66;5047798;28;20193;-72
2021/03/14 00:09:10;;;;;;;0.70;0.65;;;4.20;99.90;;;4.79;100.00;90936.69;5053077;28;20188;-72
2021/03/14 00:12:14;;;;;;;0.70;0.60;;;4.20;99.90;;;4.73;100.00;90927.16;5046735;28;20541;-73
2021/03/14 00:15:19;;;;;;;0.70;0.63;;;4.10;99.90;;;4.71;100.00;91252.31;5033304;28;20210;-72
2021/03/14 00:18:28;;;;;;;0.70;0.65;;;4.10;99.90;;;4.81;100.00;91597.47;5037881;28;20376;-73
2021/03/14 00:21:31;;;;;;;0.70;0.60;;;4.20;99.90;;;4.84;100.00;90944.63;5033701;28;20189;-73
2021/03/14 00:24:36;;;;;;;0.70;0.60;;;4.20;99.90;;;4.87;100.00;90620.97;5035398;28;20213;-71
2021/03/14 00:27:43;;;;;;;0.70;0.60;;;4.30;99.90;;;4.95;100.00;90961.28;5033394;28;20693;-73
2021/03/14 00:30:48;;;;;;;0.70;0.60;;;4.30;99.90;;;4.93;100.00;91286.56;5036679;28;20319;-72
2021/03/14 00:33:51;;;;;;;0.70;0.60;;;4.30;99.90;;;4.88;100.00;91278.59;5036214;28;20271;-72
2021/03/14 00:36:55;;;;;;;0.70;0.60;;;4.30;99.90;;;4.80;100.00;91267.44;5034131;28;20181;-72
2021/03/14 00:40:00;;;;;;;0.70;0.60;;;4.20;99.90;;;4.94;100.00;91945.22;5041303;28;20684;-72
2021/03/14 00:43:06;;;;;;;0.70;0.50;;;4.30;99.90;;;4.77;100.00;90934.28;5034693;28;20194;-72
2021/03/14 00:46:10;;;;;;;0.70;0.60;;;4.20;99.90;;;4.80;100.00;90939.06;5052689;28;20196;-72
2021/03/14 00:49:17;;;;;;;0.70;0.60;;;4.20;99.90;;;4.95;100.00;91289.75;5046417;28;20615;-72
2021/03/14 00:52:21;;;;;;;0.70;0.57;;;4.40;99.90;;;5.03;100.00;91303.31;5032903;28;20208;-71
2021/03/14 00:55:25;;;;;;;0.70;0.60;;;4.40;99.90;;;4.94;100.00;90960.50;5048539;28;20295;-72
2021/03/14 00:58:29;;;;;;;0.70;0.60;;;4.40;99.90;;;5.15;100.00;91978.91;5043449;28;20251;-72
2021/03/14 01:01:36;;;;;;;0.70;0.60;;;4.50;99.90;;;5.20;100.00;91986.94;5051006;28;20208;-72
2021/03/14 01:04:39;;;;;;;0.70;0.60;;;4.50;99.90;;;5.27;100.00;91669.47;5052029;28;20296;-72
2021/03/14 01:07:43;;;;;;;0.70;0.60;;;4.60;99.90;;;5.29;100.00;91343.97;5049353;28;20181;-72
2021/03/14 01:10:47;;;;;;;0.70;0.60;;;4.60;99.90;;;5.31;100.00;91347.16;5047766;28;20595;-71
2021/03/14 01:13:52;;;;;;;0.70;0.60;;;4.60;99.90;;;5.37;100.00;91355.13;5045641;28;20243;-73
2021/03/14 01:16:55;;;;;;;0.70;0.60;;;4.60;99.90;;;5.20;100.00;90671.63;5051245;28;20188;-73
2021/03/14 01:19:59;;;;;;;0.70;0.70;;;4.50;99.90;;;5.25;100.00;91337.59;5037532;28;20251;-73
2021/03/14 01:23:03;;;;;;;0.70;0.60;;;4.50;99.90;;;5.24;100.00;91007.34;5036770;28;20564;-73
2021/03/14 01:26:07;;;;;;;0.70;0.60;;;4.60;99.90;;;5.25;100.00;90680.31;5040357;28;20216;-74
2021/03/14 01:29:11;;;;;;;0.70;0.60;;;4.60;99.90;;;5.31;100.00;91018.47;5043859;28;20333;-73
2021/03/14 01:32:15;;;;;;;0.70;0.60;;;4.50;99.90;;;5.31;100.00;90689.84;5060501;28;20192;-72
2021/03/14 01:35:19;;;;;;;0.70;0.60;;;4.60;99.90;;;5.38;100.00;90042.09;5036083;28;20205;-73
2021/03/14 01:38:23;;;;;;;0.70;0.60;;;4.70;99.90;;;5.50;100.00;90389.63;5045858;28;20180;-73
2021/03/14 01:41:28;;;;;;;0.60;0.50;;;4.70;99.90;;;5.58;100.00;87445.59;5053787;28;20189;-71
2021/03/14 01:44:32;;;;;;;0.70;0.63;;;4.80;99.90;;;5.31;100.00;87076.81;5050465;28;20672;-74
2021/03/14 01:47:39;;;;;;;0.70;0.60;;;4.70;99.90;;;5.38;100.00;87742.66;5049710;28;20242;-73
2021/03/14 01:50:43;;;;;;;0.70;0.60;;;4.70;99.90;;;5.66;100.00;87457.03;5044991;28;20252;-73
2021/03/14 01:53:48;;;;;;;0.70;0.68;;;4.80;99.90;;;5.40;100.00;87088.97;5035072;28;20692;-72
2021/03/14 01:56:52;;;;;;;0.70;0.60;;;4.70;99.90;;;5.47;100.00;88742.63;5053809;28;20211;-72
2021/03/14 01:59:56;;;;;;;0.70;0.60;;;4.70;99.90;;;5.55;100.00;88754.25;5048398;28;20734;-72
2021/03/14 02:03:00;;;;;;;0.70;0.65;;;4.70;99.90;;;5.62;100.00;87779.44;5054222;28;20224;-72
2021/03/14 02:06:04;;;;;;;0.70;0.60;;;4.80;99.90;;;5.54;100.00;89081.31;5054422;28;20231;-72
2021/03/14 02:09:08;;;;;;;0.70;0.60;;;4.70;99.90;;;5.44;100.00;88080.25;5055323;28;20224;-73
2021/03/14 02:12:18;;;;;;;0.70;0.60;;;4.70;99.90;;;5.48;100.00;88415.66;5038370;28;20217;-71
2021/03/14 02:15:23;;;;;;;0.70;0.50;;;4.80;99.90;;;5.65;100.00;88769.00;5035801;28;20252;-72
2021/03/14 02:18:29;;;;;;;0.70;0.60;;;4.80;99.90;;;5.64;100.00;87782.50;5034247;28;20732;-72
2021/03/14 02:21:34;;;;;;;0.70;0.60;;;4.80;99.90;;;5.48;100.00;88415.66;5037649;28;20220;-72
2021/03/14 02:24:45;;;;;;;0.70;0.60;;;4.80;99.90;;;5.74;100.00;88782.94;5051329;28;20256;-72
2021/03/14 02:27:50;;;;;;;0.70;0.60;;;4.90;99.90;;;5.57;100.00;88100.28;5034226;28;20178;-72
2021/03/14 02:30:54;;;;;;;0.70;0.60;;;4.80;99.90;;;5.62;100.00;90079.03;5044296;28;20182;-72
2021/03/14 02:34:05;;;;;;;0.70;0.50;;;4.80;99.90;;;5.52;100.00;91707.84;5036070;28;21234;-71
2021/03/14 02:37:29;;;;;;;0.70;0.60;;;4.70;99.90;;;5.38;100.00;93987.53;5039372;28;20225;-73
2021/03/14 02:40:34;;;;;;;0.70;0.60;;;4.70;99.90;;;5.41;100.00;97283.91;5053030;28;20243;-72
2021/03/14 02:43:40;;;;;;;0.70;0.60;;;4.70;99.90;;;5.26;100.00;96600.94;5037916;28;20255;-71
2021/03/14 02:46:45;;;;;;;0.70;0.60;;;4.60;99.90;;;5.40;100.00;98270.25;5037987;28;20717;-72
2021/03/14 02:49:50;;;;;;;0.70;0.60;;;4.60;99.90;;;5.37;100.00;98924.78;5053271;28;20562;-74
2021/03/14 02:52:54;;;;;;;0.70;0.60;;;4.60;99.90;;;5.51;100.00;97959.66;5052826;28;20188;-72
2021/03/14 02:55:58;;;;;;;0.70;0.60;;;4.70;99.90;;;5.53;100.00;97963.94;5038180;28;20677;-71
2021/03/14 02:59:05;;;;;;;0.70;0.57;;;4.70;99.90;;;5.46;100.00;98280.53;5035852;28;20704;-72
2021/03/14 03:02:10;;;;;;;0.70;0.60;;;4.60;99.90;;;5.47;100.00;101249.28;5046430;28;20200;-72
2021/03/14 03:05:16;;;;;;;0.70;0.60;;;4.60;99.90;;;5.48;100.00;101250.16;5054300;28;20195;-71
2021/03/14 03:08:20;;;;;;;0.70;0.60;;;4.60;99.90;;;5.29;100.00;100887.94;5035210;28;20541;-72
2021/03/14 03:11:24;;;;;;;0.70;0.57;;;4.60;99.90;;;5.40;100.00;100907.28;5054132;28;20224;-72
2021/03/14 03:14:31;;;;;;;0.70;0.60;;;4.50;99.90;;;5.41;100.00;100249.78;5051925;28;20192;-73
2021/03/14 03:17:36;;;;;;;0.70;0.60;;;4.50;99.90;;;5.05;100.00;100846.69;5052232;28;20228;-72
2021/03/14 03:20:41;;;;;;;0.70;0.60;;;4.40;99.90;;;5.17;100.00;101525.97;5045845;28;20747;-73
2021/03/14 03:23:45;;;;;;;0.70;0.60;;;4.40;99.90;;;5.17;100.00;102186.06;5034252;28;20177;-73
2021/03/14 03:26:50;;;;;;;0.70;0.60;;;4.40;99.90;;;5.21;100.00;102193.19;5035599;28;20281;-72
2021/03/14 03:29:55;;;;;;;0.70;0.60;;;4.40;99.90;;;5.07;100.00;102168.28;5042157;28;20193;-73
2021/03/14 03:32:59;;;;;;;0.70;0.50;;;4.40;99.90;;;5.16;100.00;102513.97;5045168;28;20212;-72
2021/03/14 03:36:04;;;;;;;0.70;0.60;;;4.40;99.90;;;5.17;100.00;102844.53;5046725;28;20211;-73
2021/03/14 03:39:12;;;;;;;0.68;0.50;;;4.40;99.90;;;5.02;100.00;102818.59;5039041;28;20661;-72
2021/03/14 03:42:24;;;;;;;0.70;0.60;;;4.30;99.90;;;5.04;100.00;104801.44;5046657;28;20197;-73
2021/03/14 03:45:32;;;;;;;0.70;0.60;;;4.30;99.90;;;5.08;100.00;105467.53;5043963;28;20204;-74
2021/03/14 03:48:43;;;;;;;0.70;0.68;;;4.20;99.90;;;5.12;100.00;104484.31;5041886;28;20697;-73
2021/03/14 03:51:47;;;;;;;0.70;0.60;;;4.30;99.90;;;5.14;100.00;105147.72;5033948;28;20177;-73
2021/03/14 03:54:52;;;;;;;0.70;0.60;;;4.30;99.90;;;5.29;100.00;105176.06;5039180;28;20236;-72
2021/03/14 03:57:57;;;;;;;0.70;0.60;;;4.30;99.90;;;5.17;100.00;104164.50;5053737;28;20583;-73
2021/03/14 04:01:03;;;;;;;0.70;0.60;;;4.30;99.90;;;5.23;100.00;104505.25;5055033;28;20199;-72
2021/03/14 04:04:08;;;;;;;0.70;0.60;;;4.30;99.90;;;5.16;100.00;103832.88;5039640;28;20229;-72
2021/03/14 04:07:13;;;;;;;0.70;0.60;;;4.30;99.90;;;5.35;100.00;104196.22;5045117;28;20209;-73
2021/03/14 04:10:20;;;;;;;0.70;0.60;;;4.30;99.90;;;5.10;100.00;104151.81;5044043;28;20342;-73
2021/03/14 04:13:26;;;;;;;0.70;0.60;;;4.30;99.90;;;5.28;100.00;104514.34;5053480;28;20533;-72
2021/03/14 04:16:31;;;;;;;0.70;0.60;;;4.30;99.90;;;5.17;100.00;104824.22;5035110;28;20272;-72
2021/03/14 04:19:36;;;;;;;0.70;0.60;;;4.30;99.90;;;5.21;100.00;105491.41;5033661;28;20698;-72
2021/03/14 04:22:44;;;;;;;0.70;0.60;;;4.30;99.90;;;5.14;100.00;105478.56;5042384;28;20698;-73
2021/03/14 04:25:51;;;;;;;0.70;0.60;;;4.30;99.90;;;5.22;100.00;103513.00;5050568;28;20623;-72
2021/03/14 04:28:57;;;;;;;0.70;0.60;;;4.30;99.90;;;5.22;100.00;104503.41;5055562;28;20192;-70
2021/03/14 04:32:02;;;;;;;0.70;0.60;;;4.30;99.90;;;5.02;100.00;104467.06;5044607;28;20319;-73
2021/03/14 04:35:09;;;;;;;0.70;0.60;;;4.20;99.90;;;4.98;100.00;104459.81;5037125;28;20212;-72
2021/03/14 04:38:13;;;;;;;0.70;0.60;;;4.30;99.90;;;5.05;100.00;105462.97;5048470;28;20224;-69
2021/03/14 04:41:18;;;;;;;0.70;0.60;;;4.30;99.90;;;5.03;100.00;104798.69;5045625;28;20197;-72
2021/03/14 04:44:25;;;;;;;2.15;1.40;;;4.20;99.90;;;5.04;100.00;103481.47;5053810;28;20281;-71
2021/03/14 04:47:29;;;;;;;0.70;0.60;;;4.30;99.90;;;5.17;100.00;103833.78;5039912;28;20537;-73
2021/03/14 04:50:33;;;;;;;0.70;0.68;;;4.30;99.90;;;5.22;100.00;103184.13;5035060;28;20190;-72
2021/03/14 04:53:38;;;;;;;0.70;0.70;;;4.40;99.90;;;5.24;100.00;101538.34;5036963;28;20239;-72
2021/03/14 04:56:43;;;;;;;0.70;0.60;;;4.30;99.90;;;5.07;100.00;103486.88;5052939;28;20350;-73
2021/03/14 04:59:47;;;;;;;0.70;0.60;;;4.30;99.90;;;4.85;100.00;104766.78;5051370;28;20240;-73
2021/03/14 05:02:57;;;;;;;0.70;0.60;;;4.20;99.90;;;4.89;100.00;105762.50;5055066;28;20205;-73
2021/03/14 05:06:01;;;;;;;0.70;0.68;;;4.20;99.90;;;4.90;100.00;104774.97;5039852;28;20185;-73
2021/03/14 05:09:07;;;;;;;0.70;0.60;;;4.10;99.90;;;4.92;100.00;106097.88;5053540;28;20231;-73
2021/03/14 05:12:13;;;;;;;0.70;0.60;;;4.10;99.90;;;4.84;100.00;106084.97;5055237;28;20235;-72
2021/03/14 05:15:18;;;;;;;0.70;0.60;;;4.10;99.90;;;4.79;100.00;105086.47;5039556;28;20257;-73
2021/03/14 05:18:23;;;;;;;0.70;0.70;;;4.10;99.90;;;4.85;100.00;106415.75;5051089;28;20247;-73
2021/03/14 05:21:27;;;;;;;0.70;0.60;;;4.10;99.90;;;4.63;100.00;105057.19;5055714;28;20228;-74
2021/03/14 05:24:33;;;;;;;0.70;0.60;;;4.00;99.90;;;4.65;100.00;107038.31;5055457;28;20232;-73
2021/03/14 05:27:37;;;;;;;0.80;0.70;;;4.00;99.90;;;4.69;100.00;107376.56;5036571;28;20208;-73
2021/03/14 05:30:42;;;;;;;0.70;0.60;;;3.90;99.90;;;4.56;100.00;106362.97;5050452;28;20700;-74
2021/03/14 05:33:47;;;;;;;0.70;0.60;;;3.90;99.90;;;4.53;100.00;107017.84;5044192;28;20221;-73
2021/03/14 05:36:52;;;;;;;0.70;0.60;;;3.90;99.90;;;4.31;100.00;107966.88;5047433;28;20250;-72
2021/03/14 05:39:55;;;;;;;0.70;0.70;;;3.80;99.90;;;4.46;100.00;108323.00;5055803;28;20200;-74
2021/03/14 05:42:59;;;;;;;0.60;0.50;;;3.90;99.90;;;4.55;100.00;108011.00;5056332;28;20265;-73
2021/03/14 05:46:03;;;;;;;0.70;0.60;;;3.90;99.90;;;4.71;100.00;108370.06;5044113;28;20189;-73
2021/03/14 05:49:08;;;;;;;0.70;0.60;;;4.00;99.90;;;4.73;100.00;107383.09;5036967;28;20319;-73
2021/03/14 05:52:16;;;;;;;0.70;0.60;;;4.00;99.90;;;4.88;100.00;107740.16;5036585;28;20232;-74
2021/03/14 05:55:24;;;;;;;0.70;0.60;;;4.10;99.90;;;4.93;100.00;107089.50;5050576;28;20289;-73
2021/03/14 05:58:28;;;;;;;0.70;0.60;;;4.10;99.90;;;5.06;100.00;106453.72;5040439;28;20184;-73
2021/03/14 06:01:32;;;;;;;0.70;0.60;;;4.10;99.90;;;5.11;100.00;106792.97;5044475;28;20196;-73
2021/03/14 06:04:37;;;;;;;0.70;0.57;;;4.20;99.90;;;5.21;100.00;107141.69;5037711;28;20213;-72
2021/03/14 06:07:41;;;;;;;0.70;0.60;;;4.30;99.90;;;5.29;100.00;104515.25;5038658;28;20236;-73
2021/03/14 06:10:44;;;;;;;1.15;1.05;;;4.40;99.90;;;5.40;100.00;104535.25;5046980;28;20269;-73
2021/03/14 06:13:48;;;;;;;1.05;0.98;;;4.50;99.90;;;5.41;100.00;103216.44;5050980;28;20195;-73
2021/03/14 06:16:52;;;;;;;0.70;0.60;;;4.60;99.90;;;5.52;100.00;104556.16;5041020;28;20217;-73
2021/03/14 06:19:56;;;;;;;0.70;0.60;;;4.60;99.90;;;5.45;100.00;102235.00;5058660;28;20758;-74
2021/03/14 06:23:09;;;;;;;0.70;0.60;;;4.60;99.90;;;5.48;100.00;98613.41;5058550;28;20192;-73
2021/03/14 06:26:13;;;;;;;0.70;0.60;;;4.60;99.90;;;5.74;100.00;98328.50;5036601;28;20208;-73
2021/03/14 06:29:26;;;;;;;0.70;0.70;;;4.60;99.90;;;5.47;100.00;99600.22;5045753;28;20244;-72
2021/03/14 06:32:30;;;;;;;0.70;0.60;;;4.70;99.90;;;5.64;100.00;100289.09;5044275;28;20197;-73
2021/03/14 06:35:46;;;;;;;0.80;0.80;;;4.70;99.90;;;5.59;100.00;102918.81;5055400;28;20235;-73
2021/03/14 06:38:50;;;;;;;0.70;0.60;;;4.70;99.90;;;5.66;100.00;103260.44;5045496;28;20552;-73
2021/03/14 06:41:54;;;;;;;0.70;0.60;;;4.70;99.90;;;5.75;100.00;100967.91;5035829;28;20260;-73
2021/03/14 06:45:03;;;;;;;0.70;0.60;;;4.70;99.90;;;5.56;100.00;103904.28;5045707;28;20200;-72
2021/03/14 06:48:07;;;;;;;0.70;0.60;;;4.70;99.90;;;5.61;100.00;103252.38;5042150;28;20220;-73
2021/03/14 06:51:29;;;;;;;0.70;0.60;;;4.80;99.90;;;5.54;100.00;105880.31;5034061;28;20190;-73
2021/03/14 06:54:36;;;;;;;0.70;0.50;;;4.80;99.90;;;5.74;100.00;107238.63;5052556;28;20208;-73
2021/03/14 06:57:39;;;;;;;0.70;0.60;;;4.80;99.90;;;5.97;100.00;107279.66;5044640;28;20251;-72
2021/03/14 07:01:11;;;;;;;0.70;0.60;;;4.80;99.90;;;5.91;100.00;106277.00;5050997;28;20191;-72
2021/03/14 07:04:35;;;;;;;0.70;0.57;;;4.90;99.90;;;6.07;100.00;104653.53;5050335;28;20236;-73
2021/03/14 07:07:41;;;;;;;0.70;0.60;;;5.00;99.90;;;6.39;100.00;102728.25;5051238;28;20188;-73
2021/03/14 07:10:45;;;;;;;0.70;0.60;;;5.10;99.90;;;6.11;100.00;94434.19;5042494;28;20467;-73
2021/03/14 07:13:52;;;;;;;0.70;0.60;;;5.20;99.90;;;6.23;100.00;101050.53;5038950;28;20808;-72
2021/03/14 07:16:58;;;;;;;0.70;0.60;;;5.20;99.90;;;6.32;100.00;99414.25;5052235;28;21038;-72
2021/03/14 07:20:12;;;;;;;0.70;0.60;;;5.20;99.90;;;6.61;100.00;99134.31;5054896;28;20443;-73
2021/03/14 07:23:17;;;;;;;0.70;0.60;;;5.20;99.90;;;6.38;100.00;95797.13;5046031;28;20522;-73
2021/03/14 07:26:44;;;;;;;0.70;0.60;;;5.30;99.90;;;6.43;100.00;96793.88;5039111;28;20207;-73
2021/03/14 07:29:49;;;;;;;0.70;0.50;;;5.30;99.90;;;6.70;100.00;90905.34;5044183;28;20668;-71
2021/03/14 07:32:54;;;;;;;0.70;0.50;;;5.40;99.90;;;6.56;100.00;94837.13;5042960;28;20476;-69
2021/03/14 07:35:58;;;;;;;0.70;0.57;;;5.50;99.90;;;6.70;100.00;97498.50;5043485;28;20810;-72
2021/03/14 07:39:04;;;;;;;0.70;0.50;;;5.60;99.90;;;6.85;100.00;96532.97;5050100;28;20439;-72
2021/03/14 07:42:10;;;;;;;0.70;0.60;;;5.80;99.90;;;6.94;100.00;81070.44;5047529;28;20489;-72
2021/03/14 07:45:17;;;;;;;0.70;0.50;;;5.90;99.90;;;7.29;100.00;76848.09;5043306;28;20419;-73
2021/03/14 07:48:21;;;;;;;0.67;0.60;;;5.90;99.90;;;7.50;100.00;81148.50;5043361;28;20822;-72
2021/03/14 07:51:25;;;;;;;0.70;0.60;;;6.00;99.90;;;7.92;100.00;58103.25;5043910;28;20462;-73
2021/03/14 07:54:39;;;;;;;0.70;0.60;;;6.00;99.90;;;7.62;100.00;49188.75;5044174;28;20927;-71
2021/03/14 07:57:44;;;;;;;0.70;0.60;;;6.20;99.90;;;7.44;100.00;55774.22;5043528;28;20451;-72
2021/03/14 08:00:47;;;;;;;0.70;0.60;;;6.10;99.90;;;6.87;100.00;88625.13;5043401;28;20466;-74
2021/03/14 08:03:52;;;;;;;0.70;0.60;;;5.90;99.90;;;6.66;100.00;113368.31;5043535;28;20585;-72
2021/03/14 08:06:56;;;;;;;0.70;0.60;;;5.70;99.90;;;6.47;100.00;118969.09;5045300;28;20415;-72
2021/03/14 08:10:03;;;;;;;0.70;0.60;;;5.60;99.90;;;6.65;100.00;119006.25;5044188;28;20431;-72
2021/03/14 08:13:12;;;;;;;0.70;0.60;;;5.60;99.90;;;6.98;100.00;119072.28;5046869;28;20438;-73
2021/03/14 08:16:16;;;;;;;0.70;0.60;;;5.60;99.90;;;6.62;100.00;122320.63;5047603;28;20454;-72
2021/03/14 08:19:20;;;;;;;1.50;1.07;;;5.70;99.90;;;6.83;100.00;117049.19;5045382;28;21018;-72
2021/03/14 08:22:47;;;;;;;0.70;0.60;;;5.70;99.90;;;7.27;100.00;115476.97;5058564;28;20984;-72
2021/03/14 08:25:51;;;;;;;0.70;0.60;;;5.90;99.90;;;7.74;100.00;108930.69;5042146;28;20453;-71
2021/03/14 08:28:56;;;;;;;0.70;0.70;;;6.10;99.90;;;7.78;100.00;98339.78;5068347;28;20421;-72
2021/03/14 08:32:01;;;;;;;0.70;0.60;;;6.20;99.90;;;7.10;100.00;110137.09;5059569;28;21004;-73
2021/03/14 08:35:06;;;;;;;0.70;0.50;;;6.10;99.90;;;7.17;100.00;115126.00;5065840;28;21036;-72
2021/03/14 08:38:31;;;;;;;0.70;0.60;;;5.90;99.90;;;6.89;100.00;125703.09;5059254;28;20486;-72
2021/03/14 08:41:50;;;;;;;0.70;0.60;;;5.80;99.90;;;6.76;100.00;129671.78;5057055;28;20465;-73
2021/03/14 08:44:53;;;;;;;0.70;0.60;;;5.80;99.90;;;6.59;100.00;126970.69;5049514;28;20442;-73
2021/03/14 08:47:57;;;;;;;0.70;0.60;;;5.80;99.90;;;6.67;100.00;135317.78;5045581;28;20507;-72
2021/03/14 08:51:01;;;;;;;0.70;0.60;;;5.90;99.90;;;6.95;100.00;139722.09;5047450;28;20470;-72
2021/03/14 08:54:05;;;;;;;0.70;0.60;;;5.90;99.90;;;6.78;100.00;140017.50;5045754;28;20422;-73
2021/03/14 08:57:12;;;;;;;0.70;0.60;;;5.80;99.90;;;6.92;100.00;142055.69;5046369;28;20419;-73
2021/03/14 09:00:17;;;;;;;0.70;0.60;;;5.80;99.90;;;7.05;100.00;143088.53;5048739;28;20788;-73
2021/03/14 09:03:21;;;;;;;0.70;0.50;;;5.90;99.90;;;7.40;100.00;139159.75;5051350;28;20981;-73
2021/03/14 09:06:28;;;;;;;0.70;0.60;;;6.00;99.90;;;7.12;100.00;136422.47;5043415;28;20411;-73
2021/03/14 09:09:33;;;;;;;0.70;0.60;;;6.00;99.90;;;7.26;100.00;137791.75;5046977;28;20481;-73
2021/03/14 09:12:38;;;;;;;0.70;0.60;;;6.10;99.90;;;7.22;100.00;134109.00;5046056;28;20448;-72
2021/03/14 09:15:47;;;;;;;0.70;0.60;;;6.00;99.90;;;6.83;100.00;134352.06;5055028;28;20519;-75
2021/03/14 09:18:51;;;;;;;0.70;0.70;;;6.00;99.90;;;6.99;100.00;137394.63;5051146;28;20462;-74
2021/03/14 09:21:59;;;;;;;0.70;0.60;;;5.90;99.90;;;6.97;100.00;140395.31;5045729;28;20419;-74
2021/03/14 09:25:06;;;;;;;0.70;0.60;;;5.90;99.90;;;6.97;100.00;141063.78;5044662;28;20457;-74
2021/03/14 09:28:11;;;;;;;0.70;0.60;;;5.90;99.90;;;6.51;100.00;140621.19;5056337;28;20434;-73
2021/03/14 09:31:15;;;;;;;0.90;0.80;;;5.80;99.90;;;6.65;100.00;143327.53;5047225;28;20441;-72
2021/03/14 09:34:19;;;;;;;0.70;0.60;;;5.70;99.90;;;6.72;100.00;143678.03;5037113;28;20467;-70
2021/03/14 09:37:28;;;;;;;0.70;0.70;;;5.70;99.90;;;6.71;100.00;144011.19;5039121;28;20438;-72
2021/03/14 09:40:34;;;;;;;0.70;0.60;;;5.70;99.90;;;6.74;100.00;144017.44;5046470;28;20872;-73
2021/03/14 09:43:39;;;;;;;0.70;0.60;;;5.70;99.90;;;6.77;100.00;144695.13;5056794;28;20817;-74
2021/03/14 09:46:58;;;;;;;0.70;0.57;;;5.80;99.90;;;6.70;100.00;145012.06;5056503;28;20532;-74
2021/03/14 09:50:07;;;;;;;0.70;0.70;;;5.70;99.90;;;6.51;100.00;144630.00;5048958;28;20482;-74
2021/03/14 09:53:12;;;;;;;0.70;0.60;;;5.60;99.90;;;6.58;100.00;143978.78;5062113;28;20447;-74
2021/03/14 09:56:18;;;;;;;0.70;0.60;;;5.50;99.90;;;6.61;100.00;142313.69;5062719;28;20536;-74
2021/03/14 09:59:26;;;;;;;0.80;0.80;;;5.50;99.90;;;6.42;100.00;141934.06;5050603;28;20999;-72
2021/03/14 10:02:35;;;;;;;0.70;0.60;;;5.50;99.90;;;6.26;100.00;140895.47;5046009;28;20255;-72
2021/03/14 10:05:44;;;;;;;0.70;0.60;;;5.40;99.90;;;6.33;100.00;142580.00;5045731;28;20251;-71
2021/03/14 10:08:47;;;;;;;0.70;0.60;;;5.20;99.90;;;6.23;100.00;142557.81;5046887;28;20483;-71
2021/03/14 10:11:52;;;;;;;0.70;0.60;;;5.20;99.90;;;6.27;100.00;142232.44;5051405;28;20189;-71
2021/03/14 10:14:57;;;;;;;0.70;0.60;;;5.20;99.90;;;6.37;100.00;142255.81;5035909;28;20488;-70
2021/03/14 10:18:03;;;;;;;0.70;0.70;;;5.20;99.90;;;6.60;100.00;141644.13;5049462;28;20231;-69
2021/03/14 10:21:17;;;;;;;0.70;0.60;;;5.40;99.90;;;6.78;100.00;140685.72;5049311;28;20476;-71
2021/03/14 10:24:24;;;;;;;0.70;0.60;;;5.30;99.90;;;6.64;100.00;138981.75;5058761;28;20459;-70
2021/03/14 10:27:28;;;;;;;0.70;0.60;;;5.30;99.90;;;6.57;100.00;138296.06;5042342;28;20272;-71
2021/03/14 10:30:32;;;;;;;0.70;0.57;;;5.50;99.90;;;6.89;100.00;137037.00;5051187;28;20732;-70
2021/03/14 10:33:38;;;;;;;0.67;0.50;;;5.50;99.90;;;6.60;100.00;136302.13;5048320;28;20486;-71
2021/03/14 10:36:41;;;;;;;0.63;0.60;;;5.60;99.90;;;7.34;100.00;135470.06;5054197;28;20822;-71
2021/03/14 10:40:00;;;;;;;1.43;1.33;;;5.70;99.90;;;7.57;100.00;133518.94;5049816;28;20433;-70
2021/03/14 10:43:18;;;;;;;0.70;0.50;;;5.80;99.90;;;7.77;100.00;132562.09;5041258;28;20507;-69
2021/03/14 10:46:38;;;;;;;0.70;0.60;;;6.10;99.90;;;7.70;100.00;128544.25;5054746;28;20482;-69
2021/03/14 10:49:41;;;;;;;0.70;0.60;;;6.20;99.90;;;8.01;100.00;127943.72;5053078;28;20558;-72
2021/03/14 10:52:45;;;;;;;0.70;0.50;;;6.20;99.90;;;7.58;100.00;126849.72;5052057;28;20830;-72
2021/03/14 10:55:59;;;;;;;0.70;0.60;;;6.30;99.90;;;7.94;100.00;128262.91;5041817;28;20875;-72
2021/03/14 10:59:04;;;;;;;0.70;0.60;;;6.40;99.90;;;7.76;100.00;124889.63;5054668;28;20443;-72
2021/03/14 11:02:15;;;;;;;0.70;0.60;;;6.30;99.90;;;8.00;100.00;126940.88;5048892;28;20501;-72
2021/03/14 11:05:20;;;;;;;0.70;0.60;;;6.40;99.90;;;7.73;100.00;124551.13;5041609;28;20456;-73
2021/03/14 11:08:24;;;;;;;0.70;0.60;;;6.30;99.90;;;7.41;100.00;125481.09;5042543;28;21023;-73
2021/03/14 11:11:38;;;;;;;0.70;0.50;;;6.30;99.90;;;7.42;100.00;128481.97;5039517;28;20422;-72
2021/03/14 11:14:46;;;;;;;0.70;0.50;;;6.40;99.90;;;7.68;100.00;126538.38;5045358;28;20483;-72
2021/03/14 11:17:51;;;;;;;0.70;0.60;;;6.30;99.90;;;8.04;100.00;126282.69;5041608;28;20535;-71
2021/03/14 11:20:55;;;;;;;0.70;0.60;;;6.40;99.90;;;8.41;100.00;121360.03;5052295;28;20587;-73
2021/03/14 11:23:59;;;;;;;0.93;0.93;;;6.70;99.90;;;8.73;100.00;115097.91;5058139;28;20942;-72
2021/03/14 11:27:03;;;;;;;0.70;0.50;;;6.80;99.90;;;9.08;100.00;118164.63;5040068;28;20435;-73
2021/03/14 11:30:09;;;;;;;0.70;0.60;;;7.10;99.90;;;9.44;100.00;118236.22;5052626;28;20447;-72
2021/03/14 11:33:14;;;;;;;0.70;0.60;;;7.50;99.90;;;10.11;100.00;107705.22;5053173;28;20518;-73
2021/03/14 11:36:18;;;;;;;0.70;0.60;;;7.80;99.90;;;10.23;100.00;88141.66;5058423;28;20508;-73
2021/03/14 11:39:22;;;;;;;1.00;0.87;;;7.70;99.90;;;10.19;100.00;68334.63;5050857;28;20496;-71
2021/03/14 11:42:26;;;;;;;0.70;0.60;;;7.80;99.90;;;10.01;100.00;53704.91;5051881;28;21011;-70
2021/03/14 11:45:30;;;;;;;0.70;0.60;;;8.10;99.90;;;10.13;100.00;39285.38;5048653;28;20446;-73
2021/03/14 11:48:34;;;;;;;0.70;0.70;;;7.90;99.90;;;10.34;100.00;34803.09;5049816;28;20478;-71
2021/03/14 11:51:38;;;;;;;0.70;0.60;;;8.30;99.90;;;11.26;100.00;14105.38;5036071;28;20473;-71
2021/03/14 11:54:42;;;;;;;0.70;0.60;;;8.50;99.90;;;12.12;100.00;-14392.78;5055597;28;20818;-71
2021/03/14 11:57:46;;;;;;;0.70;0.60;;;9.30;99.90;;;12.17;100.00;-21012.88;5064733;28;20437;-71
2021/03/14 12:00:50;;;;;;;0.80;0.70;;;9.10;99.90;;;11.49;100.00;-20994.66;5039083;28;20492;-72
2021/03/14 12:03:55;;;;;;;0.70;0.70;;;9.00;99.90;;;10.64;100.00;-20971.69;5036109;28;20465;-72
2021/03/14 12:06:59;;;;;;;0.70;0.60;;;8.40;99.90;;;10.76;100.00;-5650.84;5031776;28;20415;-71
2021/03/14 12:10:04;;;;;;;0.70;0.60;;;8.80;99.90;;;11.29;100.00;-11254.81;5038118;28;20457;-71
2021/03/14 12:13:08;;;;;;;0.70;0.60;;;8.80;99.90;;;11.08;100.00;1222.69;5051708;28;20427;-72
2021/03/14 12:16:12;;;;;;;0.70;0.70;;;8.70;99.90;;;10.04;100.00;-1090.50;5047132;28;20515;-72
2021/03/14 12:19:16;;;;;;;0.70;0.60;;;7.70;99.90;;;9.28;100.00;58389.00;5033753;28;20623;-72
2021/03/14 12:22:20;;;;;;;0.70;0.60;;;7.50;99.90;;;9.59;100.00;104618.69;5041893;28;20457;-71
2021/03/14 12:25:24;;;;;;;0.70;0.60;;;7.80;99.90;;;10.38;100.00;119426.56;5039266;28;20510;-72
2021/03/14 12:28:28;;;;;;;1.10;1.00;;;8.80;99.90;;;10.88;100.00;76002.19;5033773;28;20924;-71
2021/03/14 12:31:31;;;;;;;0.70;0.70;;;8.30;99.90;;;10.97;100.00;60399.41;5035161;28;20415;-72
2021/03/14 12:34:36;;;;;;;0.80;0.80;;;8.30;99.90;;;10.93;100.00;32412.09;5052817;28;20818;-72
2021/03/14 12:37:40;;;;;;;0.70;0.60;;;8.50;99.90;;;11.27;100.00;8034.31;5052936;28;20497;-72
2021/03/14 12:40:46;;;;;;;0.70;0.60;;;8.50;99.90;;;11.16;100.00;8016.84;5034474;28;20474;-72
2021/03/14 12:43:50;;;;;;;0.70;0.60;;;8.60;99.90;;;11.45;100.00;5523.72;5041097;28;20789;-72
2021/03/14 12:46:54;;;;;;;0.70;0.70;;;8.70;99.90;;;11.09;100.00;-4543.47;5049462;28;20451;-72
2021/03/14 12:50:00;;;;;;;0.70;0.60;;;8.60;99.90;;;10.60;100.00;5856.53;5052431;28;20475;-72
2021/03/14 12:53:04;;;;;;;0.70;0.60;;;8.20;99.90;;;10.12;100.00;41087.41;5053356;28;20423;-72
2021/03/14 12:56:08;;;;;;;0.70;0.60;;;8.20;99.90;;;10.24;100.00;79217.66;5050711;28;20457;-72
2021/03/14 12:59:11;;;;;;;0.70;0.60;;;8.40;99.90;;;10.67;100.00;50254.03;5053639;28;20418;-72
2021/03/14 13:02:15;;;;;;;0.70;0.70;;;8.40;99.90;;;10.47;100.00;42960.59;5050703;28;20500;-70
2021/03/14 13:05:20;;;;;;;0.70;0.60;;;8.50;99.90;;;10.64;100.00;35953.28;5052296;28;20460;-71